Terrell, TX (75160)

10:21 PM CDT on May 06, 2015 (GMT -0500)
Layden Farms Talty, TX | | Change Station
CLOSE
Current Station
Personal Weather Station
Location: Forney, TX
Elevation: 502 ft
Nearby Weather Stations

Elev 502 ft 32.70 °N, 96.40 °W | Updated 10 seconds ago

Clear
Clear
73.0 °F
Feels Like 71 °F
N
10.0
Wind Variable Wind from East
Gusts 0.0 mph

Today
High -- | Low -- °F
--% Chance of Precip.
Yesterday
High -- | Low -- °F
Precip. -- in
6:33 AM 8:10 PM
Waning Gibbous, 91% visible
Pressure 29.90 in
Visibility 10.0 miles
Clouds Clear
Heat Index 71 °F
Dew Point 70 °F
Humidity 89%
Rainfall 0.07 in
Snow Depth Not available.
UV 0 out of 12
Pollen 4.20 out of 12
Air Quality Not available.
Flu Activity Sporadic
METAR KTRL 070253Z AUTO 13009KT 10SM CLR 24/21 A2992 RMK AO2 SLP124 T02440206 53015

More Conditions Fewer Conditions

Pressure 29.90 in
Visibility 10.0 miles
Clouds Clear
Heat Index 71 °F
Dew Point 70 °F
Humidity 89%
Rainfall 0.07 in
Snow Depth Not available.
UV 0 out of 12
Pollen 4.20 out of 12
Air Quality Not available.
Flu Activity Sporadic
METAR KTRL 070253Z AUTO 13009KT 10SM CLR 24/21 A2992 RMK AO2 SLP124 T02440206 53015

More Conditions Fewer Conditions

Nowcast | as of 8:53 PM CDT on May 6, 2015

A Tornado Watch is in effect until 2 am for Jack...Montague...and Young counties. Severe thunderstorms may enter these counties from the west late this evening. Large hail and damaging winds will also accompany the storms. Elsewhere...isolated thunderstorms are unlikely...but a few showers will be possible. Temperatures will be generally in the 70s throughout the evening.

×

10-Day Weather Forecast

Almanac

Astronomy

May. 06, 2015 Rise Set
Actual Time
Civil Twilight
Nautical Twilight
Astronomical Twilight
Moon
Length of Visible Light
Length of Day
Tomorrow will be .
, % of the Moon is Illuminated

Today's Extremes

State Highs State Lows

Community

WunderPhotos

Upload Photos

1,819,101 photos uploaded!

WunderBlogs® & News

Nearby

Air Quality

  Air Quality AQ Index Pollutant
Not available.

Snow Depth

Station Depth Elevation

Earthquake Activity

City Distance Mag. Time & Date
Minimum magnitude displayed is 2.5.

Coastal Water Temperatures

Place Temperature

Stations

Nearby Weather Stations

Station Location Temp. Windchill Dew Point Humidity Wind Precip. Elev Updated Type